Pagina principale
METAR-TAF:

METAR-TAF

Aeroporti :

Sullivan County International Airport

Monticello, New York, Stati Uniti

latitudine: 41-42N, longitudine: 074-48W, altezza: 428 m

Osservazione

Il bollettino è stato emesso 35 minuti fa, alle 15:06 UTC
Vento 5 kt da sud
Temperature 11°C
Umidità 100%
Pressione 1017 hPa
Visibilità: 2.4 km
Cielo coperto ad un'altezza di 200 ft
foschia

METAR: KMSV 151506Z AUTO 18005KT 1 1/2SM BR OVC002 11/11 A3003 RMK AO2

Ora: 11:41 (15:41 UTC)


TAF: mancante

Osservazioni e previsioni meteorologiche di più di 4000 aeroporti (messaggi METAR e TAF).

Le stazioni disponibili sono rappresentate dai dischi gialli e rossi sulla carta.

Puntare il mouse per vedere il nome della stazione.

Clicca sopra per visualizzare le osservazioni e previsioni meteorologiche.

Per cambiare la mappa : fare clic sui pulsanti verdi con una croce nera per ingrandire, il pulsante verde con un trattino per diminuire, o sulla freccia verde per le mappe adiacenti.


METAR-TAF: